createdAt,value
2022-11-07T00:01:21.275Z,3.85
2022-11-07T00:03:48.086Z,4.38
2022-11-07T00:06:15.161Z,4.38
2022-11-07T00:08:41.877Z,3.88
2022-11-07T00:11:08.529Z,4.22
2022-11-07T00:13:35.232Z,3.78
2022-11-07T00:16:04.729Z,4.47
2022-11-07T00:18:31.553Z,4.72
2022-11-07T00:21:05.967Z,4.10
2022-11-07T00:23:33.107Z,3.67
2022-11-07T00:26:11.162Z,3.97
2022-11-07T00:31:07.515Z,4.10
2022-11-07T00:33:34.389Z,4.18
2022-11-07T00:36:01.106Z,4.03
2022-11-07T00:38:28.062Z,3.95
2022-11-07T00:41:03.257Z,3.75
2022-11-07T00:43:30.947Z,4.30
2022-11-07T00:45:58.021Z,3.95
2022-11-07T00:48:24.708Z,4.68
2022-11-07T00:50:51.481Z,3.95
2022-11-07T00:53:18.308Z,3.67
2022-11-07T00:55:45.558Z,3.42
2022-11-07T00:58:14.736Z,4.25
2022-11-07T01:00:42.376Z,4.75
2022-11-07T01:03:27.645Z,3.67
2022-11-07T01:06:03.101Z,4.22
2022-11-07T01:08:30.778Z,3.80
2022-11-07T01:10:59.472Z,3.67
2022-11-07T01:13:26.829Z,3.28
2022-11-07T01:15:53.984Z,3.45
2022-11-07T01:18:21.165Z,3.88
2022-11-07T01:20:49.718Z,3.90
2022-11-07T01:23:18.473Z,4.13
2022-11-07T01:25:46.152Z,4.18
2022-11-07T01:28:12.965Z,4.32
2022-11-07T01:30:44.878Z,3.75
2022-11-07T01:35:40.048Z,3.78
2022-11-07T01:38:07.094Z,3.83
2022-11-07T01:40:53.861Z,3.85
2022-11-07T01:43:20.591Z,3.63
2022-11-07T01:45:47.300Z,3.58
2022-11-07T01:48:14.144Z,3.53
2022-11-07T01:50:40.974Z,3.45
2022-11-07T01:53:07.806Z,3.15
2022-11-07T01:55:35.849Z,3.17
2022-11-07T01:58:07.367Z,4.13
2022-11-07T02:00:35.528Z,3.65
2022-11-07T02:03:07.650Z,3.47
2022-11-07T02:05:48.374Z,3.13
2022-11-07T02:08:17.060Z,3.78
2022-11-07T02:10:44.494Z,3.65
2022-11-07T02:13:18.009Z,3.33
2022-11-07T02:15:44.897Z,3.58
2022-11-07T02:18:11.764Z,3.83
2022-11-07T02:20:38.539Z,3.53
2022-11-07T02:23:26.490Z,3.70
2022-11-07T02:25:54.051Z,3.78
2022-11-07T02:28:24.190Z,4.10
2022-11-07T02:30:50.989Z,3.70
2022-11-07T02:33:23.300Z,3.45
2022-11-07T02:35:52.265Z,3.30
2022-11-07T02:38:21.802Z,3.50
2022-11-07T02:40:55.530Z,3.75
2022-11-07T02:43:26.949Z,3.42
2022-11-07T02:45:55.633Z,4.03
2022-11-07T02:48:22.220Z,3.60
2022-11-07T02:50:48.884Z,3.10
2022-11-07T02:53:15.926Z,3.65
2022-11-07T02:55:43.011Z,3.78
2022-11-07T02:58:09.820Z,3.67
2022-11-07T03:00:36.494Z,3.47
2022-11-07T03:03:03.282Z,4.22
2022-11-07T03:05:29.968Z,3.28
2022-11-07T03:07:56.641Z,4.50
2022-11-07T03:10:23.335Z,3.78
2022-11-07T03:12:50.093Z,3.85
2022-11-07T03:15:16.722Z,3.35
2022-11-07T03:17:43.463Z,4.20
2022-11-07T03:20:10.843Z,4.22
2022-11-07T03:22:37.792Z,3.83
2022-11-07T03:25:06.074Z,3.42
2022-11-07T03:27:32.771Z,3.58
2022-11-07T03:29:59.534Z,3.80
2022-11-07T03:32:26.253Z,3.70
2022-11-07T03:34:52.845Z,3.10
2022-11-07T03:37:19.517Z,3.45
2022-11-07T03:39:46.192Z,4.35
2022-11-07T03:42:12.984Z,3.88
2022-11-07T03:44:40.483Z,3.65
2022-11-07T03:47:07.218Z,3.92
2022-11-07T03:49:33.883Z,3.17
2022-11-07T03:52:00.842Z,3.60
2022-11-07T03:54:30.421Z,3.45
2022-11-07T03:56:57.130Z,3.60
2022-11-07T03:59:23.997Z,3.30
2022-11-07T04:01:50.671Z,3.45
2022-11-07T04:04:17.520Z,3.95
2022-11-07T04:06:44.248Z,3.83
2022-11-07T04:09:10.921Z,3.78
2022-11-07T04:12:11.230Z,3.58
2022-11-07T04:14:56.350Z,2.95
2022-11-07T04:17:23.175Z,3.30
2022-11-07T04:19:52.470Z,3.90
2022-11-07T04:22:19.468Z,3.67
2022-11-07T04:24:46.609Z,3.15
2022-11-07T04:27:33.579Z,3.35
2022-11-07T04:30:18.897Z,3.25
2022-11-07T04:32:51.071Z,3.38
2022-11-07T04:35:19.381Z,3.20
2022-11-07T04:37:47.115Z,3.53
2022-11-07T04:40:14.738Z,2.83
2022-11-07T04:42:41.679Z,3.08
2022-11-07T04:45:09.166Z,3.65
2022-11-07T04:47:40.227Z,3.78
2022-11-07T04:50:10.504Z,3.75
2022-11-07T04:52:37.537Z,3.08
2022-11-07T04:55:05.832Z,4.05
2022-11-07T04:57:32.588Z,4.05
2022-11-07T04:59:59.322Z,3.42
2022-11-07T05:02:26.395Z,3.15
2022-11-07T05:04:53.539Z,2.90
2022-11-07T05:07:20.856Z,3.53
2022-11-07T05:09:47.741Z,3.08
2022-11-07T05:12:14.389Z,3.40
2022-11-07T05:14:41.171Z,3.20
2022-11-07T05:17:07.992Z,2.95
2022-11-07T05:19:34.620Z,3.20
2022-11-07T05:22:24.374Z,3.20
2022-11-07T05:24:51.025Z,3.53
2022-11-07T05:27:19.767Z,3.35
2022-11-07T05:29:47.140Z,2.15
2022-11-07T05:32:14.739Z,2.80
2022-11-07T05:34:41.472Z,3.60
2022-11-07T05:37:09.255Z,3.38
2022-11-07T05:39:36.985Z,3.10
2022-11-07T05:42:04.272Z,3.38
2022-11-07T05:44:31.554Z,3.33
2022-11-07T05:46:58.280Z,3.33
2022-11-07T05:49:25.578Z,3.22
2022-11-07T05:51:52.967Z,2.78
2022-11-07T05:54:19.837Z,3.13
2022-11-07T05:56:46.615Z,3.85
2022-11-07T05:59:13.849Z,3.42
2022-11-07T06:01:40.809Z,3.22
2022-11-07T06:04:08.126Z,2.97
2022-11-07T06:06:34.967Z,3.10
2022-11-07T06:09:01.704Z,2.97
2022-11-07T06:11:28.683Z,2.53
2022-11-07T06:13:55.548Z,3.22
2022-11-07T06:16:22.303Z,2.95
2022-11-07T06:18:49.158Z,3.33
2022-11-07T06:21:16.837Z,3.13
2022-11-07T06:23:43.716Z,2.88
2022-11-07T06:26:10.635Z,2.85
2022-11-07T06:28:37.426Z,2.60
2022-11-07T06:31:05.432Z,3.20
2022-11-07T06:33:32.583Z,2.88
2022-11-07T06:36:07.281Z,3.08
2022-11-07T06:38:34.229Z,3.13
2022-11-07T06:41:06.729Z,2.33
2022-11-07T06:43:34.766Z,2.50
2022-11-07T06:46:07.058Z,2.60
2022-11-07T06:48:33.917Z,3.10
2022-11-07T06:51:02.343Z,3.17
2022-11-07T06:53:29.707Z,3.35
2022-11-07T06:56:00.095Z,2.95
2022-11-07T06:58:26.892Z,2.78
2022-11-07T07:01:05.295Z,2.20
2022-11-07T07:03:32.359Z,2.58
2022-11-07T07:06:06.287Z,2.67
2022-11-07T07:08:33.774Z,2.28
2022-11-07T07:11:09.359Z,2.63
2022-11-07T07:13:36.569Z,2.88
2022-11-07T07:16:04.174Z,3.20
2022-11-07T07:18:31.178Z,2.85
2022-11-07T07:21:20.806Z,2.55
2022-11-07T07:23:47.462Z,2.97
2022-11-07T07:26:16.414Z,2.20
2022-11-07T07:28:44.315Z,2.20
2022-11-07T07:31:13.981Z,2.78
2022-11-07T07:33:45.050Z,2.40
2022-11-07T07:36:17.782Z,2.63
2022-11-07T07:38:47.081Z,2.65
2022-11-07T07:41:13.882Z,2.58
2022-11-07T07:43:40.825Z,2.72
2022-11-07T07:46:08.584Z,2.55
2022-11-07T07:48:35.327Z,2.45
2022-11-07T07:51:02.105Z,2.40
2022-11-07T07:53:29.078Z,2.95
2022-11-07T07:55:58.039Z,2.17
2022-11-07T07:58:25.587Z,2.47
2022-11-07T08:00:53.765Z,2.67
2022-11-07T08:03:20.837Z,2.58
2022-11-07T08:05:53.696Z,2.33
2022-11-07T08:08:20.885Z,2.67
2022-11-07T08:10:53.462Z,2.20
2022-11-07T08:13:22.273Z,2.40
2022-11-07T08:15:49.236Z,2.25
2022-11-07T08:18:16.097Z,2.75
2022-11-07T08:20:42.842Z,2.38
2022-11-07T08:23:16.090Z,2.20
2022-11-07T08:25:52.118Z,2.72
2022-11-07T08:28:20.123Z,1.90
2022-11-07T08:30:53.836Z,2.20
2022-11-07T08:33:20.666Z,2.15
2022-11-07T08:35:47.478Z,2.33
2022-11-07T08:38:14.225Z,1.92
2022-11-07T08:40:41.069Z,2.35
2022-11-07T08:43:07.719Z,2.15
2022-11-07T08:45:34.595Z,1.98
2022-11-07T08:48:01.268Z,1.80
2022-11-07T08:50:28.009Z,1.73
2022-11-07T08:52:59.590Z,1.92
2022-11-07T08:55:29.267Z,1.98
2022-11-07T08:58:04.611Z,2.10
2022-11-07T09:00:32.358Z,1.73
2022-11-07T09:05:57.774Z,1.58
2022-11-07T09:08:24.535Z,2.10
2022-11-07T09:10:51.234Z,1.77
2022-11-07T09:13:19.299Z,1.70
2022-11-07T09:15:50.584Z,1.90
2022-11-07T09:18:18.970Z,1.77
2022-11-07T09:20:45.647Z,2.08
2022-11-07T09:23:12.419Z,2.00
2022-11-07T09:25:39.035Z,1.40
2022-11-07T09:28:05.844Z,1.52
2022-11-07T09:30:32.678Z,1.38
2022-11-07T09:32:59.777Z,1.50
2022-11-07T09:35:27.130Z,1.65
2022-11-07T09:37:54.072Z,1.63
2022-11-07T09:40:41.707Z,1.40
2022-11-07T09:43:34.112Z,1.90
2022-11-07T09:46:15.068Z,2.85
2022-11-07T09:48:46.375Z,1.67
2022-11-07T09:51:20.687Z,2.42
2022-11-07T09:53:54.434Z,1.80
2022-11-07T09:56:21.646Z,2.10
2022-11-07T09:58:54.697Z,1.77
2022-11-07T10:01:22.336Z,1.60
2022-11-07T10:04:18.133Z,1.70
2022-11-07T10:07:05.089Z,1.25
2022-11-07T10:09:40.286Z,1.50
2022-11-07T10:12:41.711Z,1.67
2022-11-07T10:15:23.226Z,1.77
2022-11-07T10:17:58.942Z,1.88
2022-11-07T10:21:05.422Z,1.80
2022-11-07T10:24:02.575Z,1.63
2022-11-07T10:26:31.376Z,1.33
2022-11-07T10:29:02.604Z,1.50
2022-11-07T10:31:36.033Z,1.55
2022-11-07T10:34:07.374Z,2.03
2022-11-07T10:36:34.278Z,2.22
2022-11-07T10:39:01.787Z,1.70
2022-11-07T10:41:31.818Z,2.22
2022-11-07T10:44:04.671Z,1.85
2022-11-07T10:46:47.794Z,1.90
2022-11-07T10:49:27.491Z,1.77
2022-11-07T10:51:55.791Z,1.80
2022-11-07T10:54:29.204Z,1.52
2022-11-07T10:57:09.769Z,2.00
2022-11-07T10:59:40.122Z,1.80
2022-11-07T11:02:17.344Z,1.60
2022-11-07T11:04:51.175Z,1.88
2022-11-07T11:07:21.846Z,1.40
2022-11-07T11:09:54.388Z,1.98
2022-11-07T11:12:26.652Z,1.58
2022-11-07T11:15:14.573Z,1.65
2022-11-07T11:17:41.592Z,1.50
2022-11-07T11:20:31.212Z,1.55
2022-11-07T11:23:00.066Z,1.48
2022-11-07T11:25:26.842Z,1.70
2022-11-07T11:28:05.146Z,1.60
2022-11-07T11:30:33.810Z,1.95
2022-11-07T11:33:06.277Z,2.13
2022-11-07T11:35:49.407Z,1.95
2022-11-07T11:38:33.271Z,2.00
2022-11-07T11:41:10.941Z,1.60
2022-11-07T11:46:25.457Z,1.52
2022-11-07T11:49:11.932Z,2.00
2022-11-07T11:51:40.532Z,1.83
2022-11-07T11:54:12.226Z,1.85
2022-11-07T11:56:54.778Z,2.00
2022-11-07T11:59:39.584Z,2.03
2022-11-07T12:02:44.156Z,2.22
2022-11-07T12:05:35.699Z,1.65
2022-11-07T12:08:20.644Z,1.52
2022-11-07T12:10:53.321Z,1.42
2022-11-07T12:13:26.610Z,1.67
2022-11-07T12:16:31.143Z,2.05
2022-11-07T12:19:13.476Z,1.30
2022-11-07T12:22:08.729Z,1.80
2022-11-07T12:25:04.774Z,1.35
2022-11-07T12:27:57.643Z,2.10
2022-11-07T12:30:36.567Z,1.70
2022-11-07T12:33:41.224Z,1.88
2022-11-07T12:36:22.736Z,1.90
2022-11-07T12:38:58.565Z,2.40
2022-11-07T12:41:41.574Z,2.22
2022-11-07T12:44:17.152Z,1.90
2022-11-07T12:46:52.086Z,2.40
2022-11-07T12:49:36.220Z,1.65
2022-11-07T12:54:41.402Z,2.40
2022-11-07T12:57:21.698Z,2.10
2022-11-07T12:59:54.331Z,1.77
2022-11-07T13:02:26.993Z,2.00
2022-11-07T13:05:15.323Z,1.88
2022-11-07T13:07:57.320Z,1.70
2022-11-07T13:10:36.482Z,1.85
2022-11-07T13:13:11.120Z,2.15
2022-11-07T13:16:09.082Z,1.77
2022-11-07T13:18:27.561Z,2.22
2022-11-07T13:21:02.624Z,1.70
2022-11-07T13:23:29.764Z,1.77
2022-11-07T13:26:20.288Z,1.80
2022-11-07T13:29:00.842Z,2.60
2022-11-07T13:31:38.488Z,2.35
2022-11-07T13:34:20.536Z,2.15
2022-11-07T13:36:49.872Z,1.70
2022-11-07T13:39:18.384Z,1.70
2022-11-07T13:41:46.254Z,1.80
2022-11-07T13:44:38.050Z,1.67
2022-11-07T13:47:13.460Z,1.83
2022-11-07T13:49:46.447Z,2.17
2022-11-07T13:52:45.194Z,2.42
2022-11-07T13:55:17.511Z,1.58
2022-11-07T13:57:52.194Z,1.50
2022-11-07T14:00:21.148Z,1.63
2022-11-07T14:02:56.460Z,1.80
2022-11-07T14:05:27.314Z,1.80
2022-11-07T14:07:59.589Z,1.75
2022-11-07T14:10:37.835Z,1.95
2022-11-07T14:13:07.319Z,1.92
2022-11-07T14:15:36.155Z,2.60
2022-11-07T14:18:03.589Z,2.03
2022-11-07T14:20:30.304Z,2.00
2022-11-07T14:23:00.658Z,1.92
2022-11-07T14:25:32.753Z,2.03
2022-11-07T14:28:00.834Z,1.75
2022-11-07T14:30:30.556Z,1.88
2022-11-07T14:33:02.226Z,2.78
2022-11-07T14:35:37.045Z,2.08
2022-11-07T14:38:16.390Z,2.67
2022-11-07T14:40:43.478Z,2.88
2022-11-07T14:43:15.709Z,2.70
2022-11-07T14:48:31.329Z,2.67
2022-11-07T14:50:59.872Z,2.83
2022-11-07T14:53:41.481Z,2.40
2022-11-07T14:56:12.282Z,2.55
2022-11-07T14:58:39.266Z,2.55
2022-11-07T15:01:06.030Z,2.40
2022-11-07T15:03:36.607Z,2.90
2022-11-07T15:06:04.038Z,2.63
2022-11-07T15:08:36.670Z,2.70
2022-11-07T15:11:07.682Z,2.38
2022-11-07T15:13:35.280Z,2.20
2022-11-07T15:16:12.298Z,2.50
2022-11-07T15:18:42.254Z,2.83
2022-11-07T15:21:13.522Z,2.70
2022-11-07T15:23:40.408Z,2.72
2022-11-07T15:26:07.051Z,2.72
2022-11-07T15:28:42.917Z,2.40
2022-11-07T15:31:21.945Z,2.90
2022-11-07T15:33:48.960Z,2.72
2022-11-07T15:36:16.391Z,2.83
2022-11-07T15:38:44.101Z,2.95
2022-11-07T15:41:12.145Z,2.80
2022-11-07T15:43:38.973Z,2.38
2022-11-07T15:46:22.177Z,2.67
2022-11-07T15:48:49.188Z,2.97
2022-11-07T15:51:16.040Z,3.13
2022-11-07T15:53:42.874Z,3.50
2022-11-07T15:56:19.261Z,3.42
2022-11-07T15:58:46.239Z,3.90
2022-11-07T16:01:13.108Z,3.42
2022-11-07T16:03:39.953Z,3.53
2022-11-07T16:06:35.748Z,3.60
2022-11-07T16:09:04.776Z,3.40
2022-11-07T16:11:31.432Z,3.63
2022-11-07T16:14:29.325Z,3.20
2022-11-07T16:16:48.370Z,4.60
2022-11-07T16:19:22.154Z,4.85
2022-11-07T16:21:48.889Z,4.07
2022-11-07T16:24:18.410Z,3.70
2022-11-07T16:26:47.186Z,3.42
2022-11-07T16:29:14.306Z,3.35
2022-11-07T16:31:41.504Z,3.45
2022-11-07T16:34:11.953Z,3.38
2022-11-07T16:36:39.889Z,3.17
2022-11-07T16:39:08.071Z,3.00
2022-11-07T16:41:34.868Z,3.30
2022-11-07T16:44:02.161Z,2.70
2022-11-07T16:46:35.289Z,2.90
2022-11-07T16:49:30.714Z,3.05
2022-11-07T16:51:58.067Z,2.88
2022-11-07T16:54:25.097Z,2.92
2022-11-07T16:56:52.992Z,3.10
2022-11-07T16:59:22.507Z,2.97
2022-11-07T17:01:53.119Z,3.05
2022-11-07T17:04:19.998Z,3.10
2022-11-07T17:06:47.598Z,2.70
2022-11-07T17:09:16.845Z,4.22
2022-11-07T17:11:44.624Z,3.70
2022-11-07T17:14:11.588Z,3.70
2022-11-07T17:16:40.172Z,3.55
2022-11-07T17:19:07.071Z,3.83
2022-11-07T17:21:37.872Z,3.67
2022-11-07T17:24:05.281Z,3.58
2022-11-07T17:26:35.607Z,4.07
2022-11-07T17:29:03.346Z,3.88
2022-11-07T17:31:30.026Z,3.33
2022-11-07T17:33:56.921Z,3.47
2022-11-07T17:36:37.857Z,3.90
2022-11-07T17:39:11.369Z,5.95
2022-11-07T17:41:39.926Z,5.00
2022-11-07T17:44:07.077Z,3.92
2022-11-07T17:46:35.222Z,4.85
2022-11-07T17:49:04.346Z,3.53
2022-11-07T17:51:31.526Z,3.72
2022-11-07T17:53:58.803Z,3.35
2022-11-07T17:56:30.645Z,3.70
2022-11-07T17:59:03.072Z,3.33
2022-11-07T18:01:41.655Z,3.13
2022-11-07T18:04:10.677Z,3.63
2022-11-07T18:06:39.871Z,3.15
2022-11-07T18:09:07.844Z,3.60
2022-11-07T18:11:35.392Z,3.50
2022-11-07T18:14:02.526Z,4.00
2022-11-07T18:16:32.158Z,3.88
2022-11-07T18:19:00.262Z,3.47
2022-11-07T18:21:30.429Z,3.30
2022-11-07T18:23:57.606Z,3.30
2022-11-07T18:26:31.030Z,3.35
2022-11-07T18:29:02.334Z,3.17
2022-11-07T18:31:32.712Z,2.83
2022-11-07T18:34:02.979Z,3.33
2022-11-07T18:36:31.394Z,3.25
2022-11-07T18:39:03.043Z,3.05
2022-11-07T18:44:00.371Z,2.90
2022-11-07T18:46:29.977Z,2.80
2022-11-07T18:48:58.484Z,3.25
2022-11-07T18:51:25.365Z,2.85
2022-11-07T18:53:53.317Z,3.58
2022-11-07T18:56:21.204Z,2.90
2022-11-07T18:58:48.057Z,3.05
2022-11-07T19:01:17.819Z,3.35
2022-11-07T19:03:45.567Z,3.00
2022-11-07T19:06:15.556Z,3.25
2022-11-07T19:08:44.302Z,3.08
2022-11-07T19:11:13.129Z,4.63
2022-11-07T19:13:42.396Z,3.45
2022-11-07T19:16:11.504Z,3.40
2022-11-07T19:18:38.298Z,3.50
2022-11-07T19:21:05.303Z,3.45
2022-11-07T19:23:35.019Z,3.30
2022-11-07T19:26:02.033Z,3.42
2022-11-07T19:28:28.931Z,2.95
2022-11-07T19:30:55.936Z,3.15
2022-11-07T19:33:22.601Z,3.00
2022-11-07T19:35:58.995Z,3.00
2022-11-07T19:38:26.031Z,2.90
2022-11-07T19:40:52.795Z,4.20
2022-11-07T19:43:19.799Z,3.70
2022-11-07T19:45:48.080Z,3.42
2022-11-07T19:48:16.556Z,3.13
2022-11-07T19:50:43.300Z,3.63
2022-11-07T19:53:10.927Z,3.20
2022-11-07T19:55:37.684Z,3.35
2022-11-07T19:58:04.479Z,3.72
2022-11-07T20:00:31.292Z,3.42
2022-11-07T20:02:58.140Z,3.30
2022-11-07T20:05:25.061Z,3.85
2022-11-07T20:07:55.309Z,3.30
2022-11-07T20:10:24.666Z,3.55
2022-11-07T20:12:52.231Z,3.17
2022-11-07T20:15:19.015Z,3.95
2022-11-07T20:17:45.873Z,3.80
2022-11-07T20:20:13.847Z,3.90
2022-11-07T20:22:46.469Z,4.00
2022-11-07T20:25:13.858Z,3.30
2022-11-07T20:27:40.944Z,3.92
2022-11-07T20:30:08.610Z,4.50
2022-11-07T20:32:35.411Z,4.15
2022-11-07T20:35:02.280Z,3.67
2022-11-07T20:37:29.002Z,4.13
2022-11-07T20:39:56.004Z,4.10
2022-11-07T20:42:22.951Z,3.45
2022-11-07T20:44:50.583Z,3.45
2022-11-07T20:47:17.419Z,3.95
2022-11-07T20:49:44.100Z,3.90
2022-11-07T20:52:10.935Z,4.18
2022-11-07T20:54:38.072Z,4.28
2022-11-07T20:57:05.642Z,4.25
2022-11-07T20:59:32.557Z,4.07
2022-11-07T21:02:03.121Z,4.07
2022-11-07T21:04:44.431Z,3.90
2022-11-07T21:07:19.937Z,4.03
2022-11-07T21:09:46.975Z,4.30
2022-11-07T21:12:13.903Z,4.15
2022-11-07T21:14:42.147Z,4.28
2022-11-07T21:17:09.705Z,5.85
2022-11-07T21:19:36.808Z,5.20
2022-11-07T21:22:04.288Z,4.80
2022-11-07T21:24:31.713Z,4.25
2022-11-07T21:26:59.445Z,4.93
2022-11-07T21:29:29.475Z,4.60
2022-11-07T21:31:56.921Z,4.38
2022-11-07T21:34:24.121Z,4.07
2022-11-07T21:36:50.792Z,4.40
2022-11-07T21:39:17.899Z,4.15
2022-11-07T21:41:44.987Z,3.92
2022-11-07T21:44:12.642Z,4.18
2022-11-07T21:46:39.696Z,4.18
2022-11-07T21:49:06.644Z,4.07
2022-11-07T21:51:34.771Z,4.38
2022-11-07T21:54:02.892Z,4.10
2022-11-07T21:56:32.949Z,3.70
2022-11-07T21:59:01.950Z,4.70
2022-11-07T22:01:34.966Z,4.25
2022-11-07T22:04:07.355Z,4.45
2022-11-07T22:06:41.010Z,4.30
2022-11-07T22:09:09.415Z,4.18
2022-11-07T22:11:36.653Z,4.50
2022-11-07T22:14:03.853Z,5.22
2022-11-07T22:16:31.438Z,3.78
2022-11-07T22:18:59.745Z,3.90
2022-11-07T22:21:26.488Z,3.97
2022-11-07T22:23:53.209Z,3.90
2022-11-07T22:26:22.544Z,4.43
2022-11-07T22:28:50.157Z,4.47
2022-11-07T22:31:30.353Z,3.92
2022-11-07T22:33:59.279Z,3.60
2022-11-07T22:36:26.190Z,3.95
2022-11-07T22:38:52.870Z,4.25
2022-11-07T22:41:22.562Z,3.83
2022-11-07T22:43:50.301Z,3.97
2022-11-07T22:46:19.441Z,3.90
2022-11-07T22:48:47.326Z,3.65
2022-11-07T22:51:17.676Z,3.58
2022-11-07T22:53:44.334Z,3.67
2022-11-07T22:56:12.362Z,3.30
2022-11-07T22:58:40.011Z,3.13
2022-11-07T23:01:13.235Z,3.55
2022-11-07T23:03:40.013Z,3.00
2022-11-07T23:06:06.773Z,3.90
2022-11-07T23:08:33.785Z,2.80
2022-11-07T23:13:50.610Z,2.65
2022-11-07T23:16:31.285Z,2.50
2022-11-07T23:19:01.274Z,2.55
2022-11-07T23:21:28.603Z,2.70
2022-11-07T23:23:59.766Z,2.97
2022-11-07T23:26:33.500Z,2.90
2022-11-07T23:29:19.600Z,2.90
2022-11-07T23:31:48.538Z,2.38
2022-11-07T23:34:16.521Z,2.60
2022-11-07T23:36:44.809Z,2.55
2022-11-07T23:39:15.109Z,2.88
2022-11-07T23:41:42.154Z,2.53
2022-11-07T23:44:10.164Z,2.58
2022-11-07T23:46:56.431Z,2.38
2022-11-07T23:49:55.429Z,2.13
2022-11-07T23:52:22.212Z,1.98
2022-11-07T23:55:12.257Z,1.80
2022-11-07T23:57:57.631Z,1.85
